Amsterdam, MO

9:37 PM CDT on August 23, 2016 (GMT -0500)
KMOAMSTE2 | | Change Station

Elev 906 ft 38.36 °N, 94.61 °W | Updated 1 second ago

Overcast
Overcast
78.6 °F
Feels Like 80 °F
N
0.0
Wind Variable Wind from North
Gusts 0.0 mph

Today
High -- | Low -- °F
--% Chance of Precip.
Yesterday
High -- | Low -- °F
Precip. -- in
Pressure 29.93 in
Visibility 10.0 miles
Clouds Mostly Cloudy 4300 ft
Overcast 5500 ft
Heat Index 80 °F
Dew Point 60 °F
Humidity 52%
Rainfall 1.71 in
Snow Depth Not available.
6:40 AM 8:00 PM
Waning Gibbous, 62% visible
METAR KOJC 240153Z 18010KT 10SM BKN043 OVC055 26/22 A2996 RMK AO2 SLP134 T02610217
Pressure 29.93 in
Visibility 10.0 miles
Clouds Mostly Cloudy 4300 ft
Overcast 5500 ft
Heat Index 80 °F
Dew Point 60 °F
Humidity 52%
Rainfall 1.71 in
Snow Depth Not available.
6:40 AM 8:00 PM
Waning Gibbous, 62% visible
METAR KOJC 240153Z 18010KT 10SM BKN043 OVC055 26/22 A2996 RMK AO2 SLP134 T02610217

10-Day Weather Forecast

Almanac

Astronomy

Aug. 23, 2016 Rise Set
Actual Time
Civil Twilight
Nautical Twilight
Astronomical Twilight
Moon
Length of Visible Light
Length of Day
Tomorrow will be .
, % of the Moon is Illuminated

Today's Extremes

State Highs State Lows

Community

WunderPhotos

Upload Photos

1,934,528 photos uploaded!

WunderBlog® & News

Nearby

Air Quality

  Air Quality AQ Index Pollutant
Not available.

Snow Depth

Station Depth Elevation

Earthquake Activity

City Distance Mag. Time & Date
Minimum magnitude displayed is 2.5.

Coastal Water Temperatures

Place Temperature

Stations

Nearby Weather Stations

Station Location Temp. Windchill Dew Point Humidity Wind Precip. Elev Updated Type
                   

Watches & Warnings

There are currently no watches in effect.